createdAt,value
2022-12-31T00:02:24.936Z,4.57
2022-12-31T00:04:57.137Z,4.55
2022-12-31T00:07:28.731Z,4.54
2022-12-31T00:09:59.422Z,4.51
2022-12-31T00:12:30.360Z,4.49
2022-12-31T00:15:01.064Z,4.45
2022-12-31T00:17:32.293Z,4.42
2022-12-31T00:20:03.023Z,4.39
2022-12-31T00:22:33.767Z,4.37
2022-12-31T00:25:05.707Z,4.35
2022-12-31T00:27:36.447Z,4.35
2022-12-31T00:30:08.734Z,4.33
2022-12-31T00:32:39.434Z,4.32
2022-12-31T00:35:11.021Z,4.28
2022-12-31T00:37:41.817Z,4.26
2022-12-31T00:40:14.614Z,4.24
2022-12-31T00:42:45.435Z,4.22
2022-12-31T00:45:16.215Z,4.19
2022-12-31T00:47:47.033Z,4.18
2022-12-31T00:50:17.871Z,4.19
2022-12-31T00:52:48.577Z,4.19
2022-12-31T00:55:19.758Z,4.17
2022-12-31T00:57:50.460Z,4.15
2022-12-31T01:00:21.713Z,4.12
2022-12-31T01:02:52.832Z,4.11
2022-12-31T01:05:23.689Z,4.11
2022-12-31T01:07:54.425Z,4.13
2022-12-31T01:10:39.027Z,4.14
2022-12-31T01:13:09.840Z,4.16
2022-12-31T01:15:41.545Z,4.17
2022-12-31T01:18:12.331Z,4.16
2022-12-31T01:20:44.922Z,4.15
2022-12-31T01:23:15.543Z,4.13
2022-12-31T01:25:46.243Z,4.13
2022-12-31T01:28:17.007Z,4.14
2022-12-31T01:30:47.901Z,4.16
2022-12-31T01:33:18.575Z,4.17
2022-12-31T01:35:49.311Z,4.16
2022-12-31T01:38:20.171Z,4.18
2022-12-31T01:40:50.810Z,4.18
2022-12-31T01:43:22.345Z,4.18
2022-12-31T01:45:55.688Z,4.18
2022-12-31T01:48:28.656Z,4.18
2022-12-31T01:50:59.326Z,4.19
2022-12-31T01:53:30.219Z,4.18
2022-12-31T01:56:02.064Z,4.17
2022-12-31T01:58:37.912Z,4.16
2022-12-31T02:01:11.157Z,4.17
2022-12-31T02:03:42.867Z,4.18
2022-12-31T02:06:19.757Z,4.19
2022-12-31T02:08:51.304Z,4.22
2022-12-31T02:11:28.590Z,4.24
2022-12-31T02:14:02.514Z,4.27
2022-12-31T02:16:41.462Z,4.30
2022-12-31T02:19:37.882Z,4.34
2022-12-31T02:22:19.355Z,4.36
2022-12-31T02:25:18.163Z,4.39
2022-12-31T02:28:02.026Z,4.40
2022-12-31T02:30:34.495Z,4.39
2022-12-31T02:33:14.768Z,4.42
2022-12-31T02:35:55.073Z,4.45
2022-12-31T02:38:31.380Z,4.50
2022-12-31T02:41:02.916Z,4.54
2022-12-31T02:43:33.643Z,4.54
2022-12-31T02:46:17.654Z,4.54
2022-12-31T02:48:56.002Z,4.55
2022-12-31T02:51:38.329Z,4.57
2022-12-31T02:54:20.982Z,4.57
2022-12-31T02:57:02.000Z,4.60
2022-12-31T02:59:56.452Z,4.66
2022-12-31T03:02:32.091Z,4.70
2022-12-31T03:05:04.936Z,4.73
2022-12-31T03:07:35.880Z,4.75
2022-12-31T03:10:07.669Z,4.77
2022-12-31T03:12:48.470Z,4.78
2022-12-31T03:15:21.936Z,4.81
2022-12-31T03:18:01.975Z,4.86
2022-12-31T03:20:53.433Z,4.91
2022-12-31T03:23:26.939Z,4.99
2022-12-31T03:25:58.639Z,5.06
2022-12-31T03:28:31.520Z,5.10
2022-12-31T03:31:04.445Z,5.14
2022-12-31T03:33:37.255Z,5.19
2022-12-31T03:36:14.468Z,5.24
2022-12-31T03:38:48.557Z,5.29
2022-12-31T03:41:23.444Z,5.34
2022-12-31T03:43:54.168Z,5.40
2022-12-31T03:46:24.971Z,5.47
2022-12-31T03:48:55.678Z,5.52
2022-12-31T03:51:26.404Z,5.56
2022-12-31T03:53:57.086Z,5.58
2022-12-31T03:56:27.934Z,5.59
2022-12-31T03:58:58.676Z,5.63
2022-12-31T04:01:29.477Z,5.64
2022-12-31T04:04:00.243Z,5.64
2022-12-31T04:06:31.017Z,5.66
2022-12-31T04:09:01.725Z,5.68
2022-12-31T04:11:32.557Z,5.72
2022-12-31T04:14:04.565Z,5.75
2022-12-31T04:16:35.722Z,5.80
2022-12-31T04:19:07.020Z,5.84
2022-12-31T04:21:37.773Z,5.87
2022-12-31T04:24:09.529Z,5.92
2022-12-31T04:26:40.872Z,5.94
2022-12-31T04:29:12.024Z,5.97
2022-12-31T04:31:42.647Z,6.02
2022-12-31T04:34:13.461Z,6.06
2022-12-31T04:36:44.318Z,6.10
2022-12-31T04:39:15.016Z,6.14
2022-12-31T04:41:45.669Z,6.18
2022-12-31T04:44:16.576Z,6.20
2022-12-31T04:46:47.286Z,6.21
2022-12-31T04:49:18.116Z,6.21
2022-12-31T04:51:48.836Z,6.22
2022-12-31T04:54:19.610Z,6.22
2022-12-31T04:56:50.409Z,6.25
2022-12-31T04:59:21.249Z,6.27
2022-12-31T05:01:52.014Z,6.30
2022-12-31T05:04:22.765Z,6.34
2022-12-31T05:06:53.392Z,6.37
2022-12-31T05:09:24.288Z,6.40
2022-12-31T05:11:55.026Z,6.42
2022-12-31T05:14:25.993Z,6.45
2022-12-31T05:16:58.793Z,6.47
2022-12-31T05:19:29.611Z,6.51
2022-12-31T05:22:18.331Z,6.53
2022-12-31T05:24:51.976Z,6.58
2022-12-31T05:27:23.301Z,6.63
2022-12-31T05:29:54.061Z,6.69
2022-12-31T05:32:24.716Z,6.74
2022-12-31T05:34:55.419Z,6.79
2022-12-31T05:37:26.582Z,6.82
2022-12-31T05:39:57.590Z,6.86
2022-12-31T05:42:29.623Z,6.88
2022-12-31T05:45:00.372Z,6.90
2022-12-31T05:47:31.112Z,6.93
2022-12-31T05:50:01.858Z,6.97
2022-12-31T05:52:32.549Z,7.01
2022-12-31T05:55:03.698Z,7.04
2022-12-31T05:57:34.477Z,7.09
2022-12-31T06:00:06.593Z,7.13
2022-12-31T06:02:44.506Z,7.18
2022-12-31T06:05:15.257Z,7.21
2022-12-31T06:07:46.002Z,7.25
2022-12-31T06:10:16.671Z,7.28
2022-12-31T06:12:47.383Z,7.32
2022-12-31T06:15:18.189Z,7.36
2022-12-31T06:17:48.930Z,7.41
2022-12-31T06:20:20.556Z,7.47
2022-12-31T06:22:51.392Z,7.53
2022-12-31T06:25:22.521Z,7.57
2022-12-31T06:27:53.256Z,7.61
2022-12-31T06:30:23.956Z,7.63
2022-12-31T06:32:55.569Z,7.65
2022-12-31T06:35:26.375Z,7.68
2022-12-31T06:37:57.065Z,7.70
2022-12-31T06:40:27.855Z,7.74
2022-12-31T06:43:00.316Z,7.79
2022-12-31T06:45:31.203Z,7.84
2022-12-31T06:48:01.900Z,7.88
2022-12-31T06:50:32.614Z,7.90
2022-12-31T06:53:03.579Z,7.93
2022-12-31T06:55:35.775Z,7.95
2022-12-31T06:58:07.957Z,7.97
2022-12-31T07:00:39.575Z,7.99
2022-12-31T07:03:24.326Z,8.02
2022-12-31T07:05:59.658Z,8.07
2022-12-31T07:08:45.087Z,8.10
2022-12-31T07:11:21.739Z,8.13
2022-12-31T07:14:11.044Z,8.15
2022-12-31T07:16:56.671Z,8.17
2022-12-31T07:19:30.353Z,8.19
2022-12-31T07:22:03.720Z,8.20
2022-12-31T07:24:36.317Z,8.22
2022-12-31T07:27:33.716Z,8.26
2022-12-31T07:30:10.878Z,8.30
2022-12-31T07:33:01.780Z,8.34
2022-12-31T07:35:43.152Z,8.38
2022-12-31T07:38:25.984Z,8.41
2022-12-31T07:41:09.812Z,8.44
2022-12-31T07:43:58.584Z,8.48
2022-12-31T07:46:36.814Z,8.52
2022-12-31T07:49:11.586Z,8.57
2022-12-31T07:51:46.516Z,8.62
2022-12-31T07:54:18.400Z,8.67
2022-12-31T07:56:50.579Z,8.72
2022-12-31T07:59:33.764Z,8.77
2022-12-31T08:02:14.719Z,8.83
2022-12-31T08:04:55.615Z,8.85
2022-12-31T08:07:36.882Z,8.90
2022-12-31T08:10:17.986Z,8.93
2022-12-31T08:12:54.257Z,8.98
2022-12-31T08:15:30.288Z,9.04
2022-12-31T08:18:02.614Z,9.09
2022-12-31T08:20:37.642Z,9.14
2022-12-31T08:23:20.040Z,9.17
2022-12-31T08:26:06.053Z,9.20
2022-12-31T08:28:54.989Z,9.22
2022-12-31T08:31:34.935Z,9.24
2022-12-31T08:34:15.344Z,9.27
2022-12-31T08:36:54.423Z,9.31
2022-12-31T08:39:34.158Z,9.35
2022-12-31T08:42:09.703Z,9.40
2022-12-31T08:44:46.211Z,9.45
2022-12-31T08:47:27.421Z,9.50
2022-12-31T08:49:59.093Z,9.53
2022-12-31T08:52:30.767Z,9.57
2022-12-31T08:55:02.798Z,9.61
2022-12-31T08:57:42.035Z,9.66
2022-12-31T09:00:16.824Z,9.71
2022-12-31T09:03:06.934Z,9.76
2022-12-31T09:05:54.139Z,9.81
2022-12-31T09:08:35.359Z,9.86
2022-12-31T09:11:17.689Z,9.90
2022-12-31T09:14:09.548Z,9.96
2022-12-31T09:16:49.474Z,10.01
2022-12-31T09:19:20.293Z,10.07
2022-12-31T09:21:51.735Z,10.11
2022-12-31T09:24:23.240Z,10.13
2022-12-31T09:27:05.817Z,10.16
2022-12-31T09:29:55.715Z,10.19
2022-12-31T09:32:40.462Z,10.25
2022-12-31T09:35:20.571Z,10.36
2022-12-31T09:37:56.350Z,10.45
2022-12-31T09:40:55.297Z,10.56
2022-12-31T09:44:01.381Z,10.68
2022-12-31T09:46:43.863Z,10.84
2022-12-31T09:49:48.371Z,10.99
2022-12-31T09:52:26.173Z,11.11
2022-12-31T09:55:14.456Z,11.17
2022-12-31T09:57:57.749Z,11.24
2022-12-31T10:00:38.061Z,11.32
2022-12-31T10:03:24.327Z,11.39
2022-12-31T10:06:06.366Z,11.48
2022-12-31T10:08:50.967Z,11.49
2022-12-31T10:11:30.935Z,11.52
2022-12-31T10:14:18.440Z,11.62
2022-12-31T10:17:09.639Z,11.93
2022-12-31T10:20:07.100Z,12.39
2022-12-31T10:23:05.696Z,12.77
2022-12-31T10:26:05.900Z,12.97
2022-12-31T10:28:47.997Z,13.25
2022-12-31T10:31:38.168Z,13.49
2022-12-31T10:34:17.521Z,13.88
2022-12-31T10:36:56.352Z,14.16
2022-12-31T10:39:39.197Z,14.22
2022-12-31T10:42:32.562Z,14.18
2022-12-31T10:45:30.228Z,14.12
2022-12-31T10:48:45.861Z,13.99
2022-12-31T10:52:10.771Z,13.80
2022-12-31T10:55:09.551Z,13.60
2022-12-31T10:58:32.157Z,13.40
2022-12-31T11:01:13.800Z,13.23
2022-12-31T11:04:21.039Z,13.16
2022-12-31T11:07:33.861Z,13.05
2022-12-31T11:10:38.569Z,12.98
2022-12-31T11:13:44.995Z,12.94
2022-12-31T11:16:45.398Z,12.97
2022-12-31T11:19:23.681Z,13.01
2022-12-31T11:22:04.874Z,13.03
2022-12-31T11:24:48.118Z,13.01
2022-12-31T11:27:34.342Z,12.97
2022-12-31T11:30:28.668Z,12.88
2022-12-31T11:33:18.809Z,12.79
2022-12-31T11:36:05.865Z,12.67
2022-12-31T11:38:43.484Z,12.58
2022-12-31T11:41:24.177Z,12.50
2022-12-31T11:44:04.274Z,12.45
2022-12-31T11:46:59.884Z,12.44
2022-12-31T11:49:41.533Z,12.43
2022-12-31T11:52:34.552Z,12.44
2022-12-31T11:55:29.698Z,12.44
2022-12-31T11:58:12.659Z,12.40
2022-12-31T12:00:53.227Z,12.37
2022-12-31T12:03:25.203Z,12.37
2022-12-31T12:05:57.285Z,12.37
2022-12-31T12:08:32.615Z,12.39
2022-12-31T12:11:08.514Z,12.40
2022-12-31T12:13:39.321Z,12.43
2022-12-31T12:16:11.192Z,12.45
2022-12-31T12:18:48.914Z,12.49
2022-12-31T12:21:23.335Z,12.55
2022-12-31T12:24:00.149Z,12.58
2022-12-31T12:26:38.420Z,12.60
2022-12-31T12:29:17.432Z,12.59
2022-12-31T12:31:59.882Z,12.57
2022-12-31T12:34:33.091Z,12.54
2022-12-31T12:37:04.974Z,12.50
2022-12-31T12:39:37.089Z,12.45
2022-12-31T12:42:13.718Z,12.41
2022-12-31T12:44:44.542Z,12.37
2022-12-31T12:47:19.599Z,12.35
2022-12-31T12:49:55.273Z,12.31
2022-12-31T12:52:42.894Z,12.29
2022-12-31T12:55:22.367Z,12.27
2022-12-31T12:58:01.436Z,12.25
2022-12-31T13:00:39.256Z,12.25
2022-12-31T13:04:07.244Z,12.24
2022-12-31T13:06:44.543Z,12.23
2022-12-31T13:09:33.253Z,12.22
2022-12-31T13:12:13.570Z,12.21
2022-12-31T13:14:52.667Z,12.20
2022-12-31T13:18:01.233Z,12.18
2022-12-31T13:20:42.902Z,12.20
2022-12-31T13:23:20.987Z,12.22
2022-12-31T13:25:59.725Z,12.23
2022-12-31T13:28:29.344Z,12.24
2022-12-31T13:31:06.480Z,12.25
2022-12-31T13:33:39.782Z,12.24
2022-12-31T13:36:11.672Z,12.24
2022-12-31T13:38:42.959Z,12.25
2022-12-31T13:41:14.614Z,12.24
2022-12-31T13:43:50.834Z,12.25
2022-12-31T13:46:31.704Z,12.23
2022-12-31T13:49:02.312Z,12.22
2022-12-31T13:51:41.282Z,12.21
2022-12-31T13:54:19.575Z,12.20
2022-12-31T13:56:49.689Z,12.20
2022-12-31T13:59:22.294Z,12.19
2022-12-31T14:01:53.786Z,12.20
2022-12-31T14:04:26.506Z,12.23
2022-12-31T14:06:59.793Z,12.26
2022-12-31T14:09:29.508Z,12.29
2022-12-31T14:12:14.311Z,12.32
2022-12-31T14:14:47.299Z,12.34
2022-12-31T14:17:20.954Z,12.37
2022-12-31T14:19:55.571Z,12.38
2022-12-31T14:22:29.005Z,12.39
2022-12-31T14:24:59.130Z,12.41
2022-12-31T14:27:30.421Z,12.42
2022-12-31T14:30:01.015Z,12.42
2022-12-31T14:32:43.050Z,12.41
2022-12-31T14:35:20.202Z,12.42
2022-12-31T14:37:56.020Z,12.43
2022-12-31T14:40:29.222Z,12.44
2022-12-31T14:43:07.205Z,12.44
2022-12-31T14:45:43.006Z,12.46
2022-12-31T14:48:22.265Z,12.48
2022-12-31T14:50:52.154Z,12.52
2022-12-31T14:53:24.252Z,12.57
2022-12-31T14:56:01.141Z,12.61
2022-12-31T14:58:34.885Z,12.65
2022-12-31T15:01:08.761Z,12.68
2022-12-31T15:03:45.425Z,12.72
2022-12-31T15:06:30.106Z,12.73
2022-12-31T15:09:08.355Z,12.76
2022-12-31T15:11:46.276Z,12.78
2022-12-31T15:14:37.399Z,12.79
2022-12-31T15:17:15.224Z,12.80
2022-12-31T15:19:55.442Z,12.81
2022-12-31T15:22:32.282Z,12.82
2022-12-31T15:25:02.161Z,12.82
2022-12-31T15:27:37.807Z,12.82
2022-12-31T15:30:10.292Z,12.82
2022-12-31T15:32:41.088Z,12.82
2022-12-31T15:35:23.920Z,12.82
2022-12-31T15:38:01.273Z,12.82
2022-12-31T15:40:31.146Z,12.83
2022-12-31T15:43:03.615Z,12.85
2022-12-31T15:45:34.638Z,12.88
2022-12-31T15:48:08.177Z,12.92
2022-12-31T15:50:40.336Z,12.97
2022-12-31T15:53:09.737Z,13.01
2022-12-31T15:55:42.730Z,13.06
2022-12-31T15:58:14.962Z,13.08
2022-12-31T16:00:55.448Z,13.13
2022-12-31T16:03:25.848Z,13.14
2022-12-31T16:05:59.801Z,13.16
2022-12-31T16:08:31.329Z,13.16
2022-12-31T16:11:01.106Z,13.18
2022-12-31T16:13:31.293Z,13.18
2022-12-31T16:16:01.996Z,13.19
2022-12-31T16:18:39.583Z,13.19
2022-12-31T16:21:23.784Z,13.19
2022-12-31T16:23:53.877Z,13.18
2022-12-31T16:26:25.163Z,13.19
2022-12-31T16:29:00.018Z,13.18
2022-12-31T16:31:31.027Z,13.19
2022-12-31T16:34:07.443Z,13.19
2022-12-31T16:36:36.757Z,13.21
2022-12-31T16:39:23.113Z,13.21
2022-12-31T16:41:52.679Z,13.22
2022-12-31T16:44:29.053Z,13.23
2022-12-31T16:47:00.980Z,13.24
2022-12-31T16:49:31.426Z,13.26
2022-12-31T16:52:02.724Z,13.27
2022-12-31T16:54:33.700Z,13.28
2022-12-31T16:57:03.464Z,13.29
2022-12-31T16:59:35.762Z,13.30
2022-12-31T17:02:08.250Z,13.29
2022-12-31T17:04:41.509Z,13.27
2022-12-31T17:07:28.666Z,13.25
2022-12-31T17:10:06.308Z,13.23
2022-12-31T17:12:53.082Z,13.21
2022-12-31T17:15:35.456Z,13.18
2022-12-31T17:18:04.773Z,13.16
2022-12-31T17:20:35.148Z,13.14
2022-12-31T17:23:07.603Z,13.12
2022-12-31T17:25:38.314Z,13.10
2022-12-31T17:28:08.969Z,13.09
2022-12-31T17:30:43.964Z,13.10
2022-12-31T17:33:36.369Z,13.09
2022-12-31T17:36:22.004Z,13.08
2022-12-31T17:38:51.778Z,13.08
2022-12-31T17:41:28.462Z,13.08
2022-12-31T17:43:58.455Z,13.08
2022-12-31T17:46:27.777Z,13.08
2022-12-31T17:49:00.434Z,13.08
2022-12-31T17:51:29.971Z,13.10
2022-12-31T17:53:59.872Z,13.11
2022-12-31T17:56:29.209Z,13.14
2022-12-31T17:58:59.534Z,13.17
2022-12-31T18:01:31.925Z,13.21
2022-12-31T18:04:01.319Z,13.24
2022-12-31T18:06:31.624Z,13.26
2022-12-31T18:09:01.069Z,13.29
2022-12-31T18:11:30.560Z,13.31
2022-12-31T18:14:00.169Z,13.33
2022-12-31T18:16:29.980Z,13.35
2022-12-31T18:19:01.587Z,13.37
2022-12-31T18:21:36.463Z,13.39
2022-12-31T18:24:07.545Z,13.41
2022-12-31T18:26:36.982Z,13.42
2022-12-31T18:29:13.650Z,13.44
2022-12-31T18:31:43.849Z,13.45
2022-12-31T18:34:22.448Z,13.47
2022-12-31T18:36:51.842Z,13.48
2022-12-31T18:39:21.266Z,13.49
2022-12-31T18:41:50.618Z,13.53
2022-12-31T18:44:19.801Z,13.55
2022-12-31T18:46:50.379Z,13.56
2022-12-31T18:49:21.977Z,13.59
2022-12-31T18:51:54.346Z,13.62
2022-12-31T18:54:24.236Z,13.65
2022-12-31T18:56:57.070Z,13.69
2022-12-31T18:59:26.814Z,13.74
2022-12-31T19:02:03.982Z,13.79
2022-12-31T19:04:33.279Z,13.84
2022-12-31T19:07:02.931Z,13.90
2022-12-31T19:09:50.082Z,13.94
2022-12-31T19:12:22.200Z,13.97
2022-12-31T19:14:51.435Z,13.99
2022-12-31T19:17:21.760Z,14.01
2022-12-31T19:19:51.061Z,14.01
2022-12-31T19:22:20.366Z,14.02
2022-12-31T19:24:49.525Z,14.02
2022-12-31T19:27:18.966Z,14.02
2022-12-31T19:29:48.612Z,14.01
2022-12-31T19:32:17.943Z,13.99
2022-12-31T19:34:47.111Z,13.97
2022-12-31T19:37:16.505Z,13.93
2022-12-31T19:39:45.827Z,13.90
2022-12-31T19:42:16.459Z,13.88
2022-12-31T19:44:45.689Z,13.85
2022-12-31T19:47:15.279Z,13.82
2022-12-31T19:49:44.877Z,13.78
2022-12-31T19:52:14.197Z,13.76
2022-12-31T19:54:43.443Z,13.73
2022-12-31T19:57:12.736Z,13.71
2022-12-31T19:59:41.986Z,13.69
2022-12-31T20:02:11.940Z,13.70
2022-12-31T20:04:41.433Z,13.72
2022-12-31T20:07:10.756Z,13.74
2022-12-31T20:09:40.115Z,13.76
2022-12-31T20:12:11.304Z,13.78
2022-12-31T20:14:41.172Z,13.80
2022-12-31T20:17:10.415Z,13.81
2022-12-31T20:19:39.811Z,13.82
2022-12-31T20:22:09.026Z,13.82
2022-12-31T20:24:38.444Z,13.81
2022-12-31T20:27:10.979Z,13.81
2022-12-31T20:29:44.356Z,13.80
2022-12-31T20:32:13.651Z,13.78
2022-12-31T20:34:43.994Z,13.77
2022-12-31T20:37:13.467Z,13.77
2022-12-31T20:39:44.046Z,13.75
2022-12-31T20:42:13.242Z,13.75
2022-12-31T20:44:42.397Z,13.72
2022-12-31T20:47:11.693Z,13.73
2022-12-31T20:52:30.133Z,13.70
2022-12-31T20:54:59.445Z,13.69
2022-12-31T20:57:33.378Z,13.68
2022-12-31T21:00:03.809Z,13.67
2022-12-31T21:02:41.311Z,13.67
2022-12-31T21:05:12.342Z,13.66
2022-12-31T21:07:42.108Z,13.68
2022-12-31T21:10:11.416Z,13.70
2022-12-31T21:12:53.168Z,13.72
2022-12-31T21:15:22.562Z,13.76
2022-12-31T21:17:51.859Z,13.79
2022-12-31T21:20:21.126Z,13.81
2022-12-31T21:22:50.480Z,13.82
2022-12-31T21:25:19.779Z,13.82
2022-12-31T21:27:49.021Z,13.81
2022-12-31T21:30:19.587Z,13.78
2022-12-31T21:32:49.564Z,13.77
2022-12-31T21:38:08.610Z,13.73
2022-12-31T21:40:38.038Z,13.70
2022-12-31T21:43:07.388Z,13.69
2022-12-31T21:45:36.694Z,13.66
2022-12-31T21:48:22.180Z,13.64
2022-12-31T21:50:52.174Z,13.62
2022-12-31T21:53:26.193Z,13.60
2022-12-31T21:56:11.784Z,13.59
2022-12-31T21:58:42.127Z,13.57
2022-12-31T22:01:34.432Z,13.56
2022-12-31T22:04:04.291Z,13.53
2022-12-31T22:06:34.499Z,13.52
2022-12-31T22:09:03.911Z,13.52
2022-12-31T22:11:33.076Z,13.52
2022-12-31T22:14:02.311Z,13.53
2022-12-31T22:16:31.628Z,13.54
2022-12-31T22:19:00.982Z,13.57
2022-12-31T22:21:30.264Z,13.60
2022-12-31T22:23:59.824Z,13.62
2022-12-31T22:26:29.892Z,13.64
2022-12-31T22:29:00.139Z,13.65
2022-12-31T22:31:31.168Z,13.67
2022-12-31T22:34:02.066Z,13.66
2022-12-31T22:36:31.513Z,13.65
2022-12-31T22:39:00.882Z,13.65
2022-12-31T22:41:30.166Z,13.64
2022-12-31T22:44:04.006Z,13.63
2022-12-31T22:46:34.350Z,13.61
2022-12-31T22:49:04.967Z,13.60
2022-12-31T22:51:57.605Z,13.60
2022-12-31T22:54:23.727Z,13.59
2022-12-31T22:56:53.167Z,13.59
2022-12-31T22:59:24.058Z,13.59
2022-12-31T23:01:53.650Z,13.58
2022-12-31T23:04:23.246Z,13.59
2022-12-31T23:06:52.735Z,13.59
2022-12-31T23:09:39.941Z,13.61
2022-12-31T23:12:09.807Z,13.62
2022-12-31T23:14:57.023Z,13.64
2022-12-31T23:17:45.032Z,13.66
2022-12-31T23:20:33.500Z,13.71
2022-12-31T23:23:12.955Z,13.74
2022-12-31T23:25:43.265Z,13.77
2022-12-31T23:28:14.403Z,13.78
2022-12-31T23:30:44.217Z,13.79
2022-12-31T23:33:15.986Z,13.79
2022-12-31T23:35:45.400Z,13.78
2022-12-31T23:38:16.862Z,13.77
2022-12-31T23:40:46.265Z,13.77
2022-12-31T23:43:22.043Z,13.76
2022-12-31T23:45:52.183Z,13.75
2022-12-31T23:48:21.546Z,13.74
2022-12-31T23:50:53.733Z,13.74
2022-12-31T23:53:24.104Z,13.71
2022-12-31T23:55:53.768Z,13.70
2022-12-31T23:58:23.305Z,13.69
